Terminal Aerodrome Forecast
Issued by NWS Quad Cities IA IL

Home | Current Version | Previous Version | Text Only | Print | Product List | Glossary On
Versions: 1 2 3 4 5 6 7 8 9 10 11 12 13 14 15 16 17 18 19 20 21 22 23 24
000
FTUS43 KDVN 311804
TAFDBQ

KDBQ 311757Z 3118/0118 24010KT P6SM BKN080
     FM312100 25006KT P6SM BKN025 OVC150
     FM010200 VRB04KT 1 1/2SM -SN BR OVC015
     FM010500 06011KT 1/2SM SN FG OVC003
     FM011300 05018G26KT 1SM -SN OVC007=

USA.gov is the U.S. government's official web portal to all federal, state and local government web resources and services.